createdAt,value
2023-03-03T00:00:45.022Z,38.30
2023-03-03T00:03:54.930Z,41.00
2023-03-03T00:06:58.917Z,46.60
2023-03-03T00:10:02.687Z,46.10
2023-03-03T00:13:16.308Z,47.50
2023-03-03T00:16:23.296Z,47.80
2023-03-03T00:19:26.928Z,48.90
2023-03-03T00:22:35.841Z,49.50
2023-03-03T00:25:43.309Z,45.10
2023-03-03T00:28:52.074Z,46.60
2023-03-03T00:31:55.871Z,44.80
2023-03-03T00:35:19.569Z,44.90
2023-03-03T00:38:24.223Z,41.70
2023-03-03T00:41:28.460Z,42.20
2023-03-03T00:44:46.546Z,40.20
2023-03-03T00:47:50.557Z,40.80
2023-03-03T00:50:57.198Z,41.40
2023-03-03T00:54:00.891Z,41.10
2023-03-03T00:57:04.171Z,43.60
2023-03-03T01:00:09.184Z,41.70
2023-03-03T01:03:19.401Z,44.00
2023-03-03T01:06:23.101Z,43.30
2023-03-03T01:09:26.449Z,42.40
2023-03-03T01:12:30.936Z,43.60
2023-03-03T01:15:34.467Z,43.60
2023-03-03T01:18:40.308Z,44.20
2023-03-03T01:21:43.657Z,42.70
2023-03-03T01:24:47.095Z,44.20
2023-03-03T01:27:50.451Z,42.80
2023-03-03T01:30:54.404Z,41.80
2023-03-03T01:33:57.807Z,41.40
2023-03-03T01:37:01.171Z,42.60
2023-03-03T01:40:13.581Z,40.00
2023-03-03T01:46:34.663Z,36.30
2023-03-03T01:50:02.905Z,38.50
2023-03-03T01:53:17.493Z,38.90
2023-03-03T01:56:21.420Z,40.10
2023-03-03T01:59:29.771Z,39.40
2023-03-03T02:02:34.585Z,41.10
2023-03-03T02:05:40.098Z,38.50
2023-03-03T02:08:48.820Z,43.70
2023-03-03T02:11:55.262Z,47.00
2023-03-03T02:14:58.634Z,46.30
2023-03-03T02:18:06.087Z,48.70
2023-03-03T02:21:15.556Z,49.80
2023-03-03T02:24:53.790Z,38.20
2023-03-03T02:27:57.726Z,49.90
2023-03-03T02:31:02.402Z,49.30
2023-03-03T02:34:06.639Z,46.80
2023-03-03T02:37:09.959Z,49.80
2023-03-03T02:40:14.695Z,47.40
2023-03-03T02:43:23.641Z,48.10
2023-03-03T02:46:29.421Z,44.80
2023-03-03T02:49:35.552Z,46.80
2023-03-03T02:52:39.616Z,48.80
2023-03-03T02:55:42.874Z,44.80
2023-03-03T02:58:46.114Z,44.00
2023-03-03T03:01:50.235Z,44.50
2023-03-03T03:04:54.964Z,41.70
2023-03-03T03:07:59.551Z,40.60
2023-03-03T03:11:04.174Z,38.90
2023-03-03T03:14:11.775Z,39.70
2023-03-03T03:17:15.219Z,39.20
2023-03-03T03:20:19.356Z,38.10
2023-03-03T03:23:23.009Z,40.60
2023-03-03T03:26:26.374Z,42.20
2023-03-03T03:29:29.754Z,42.30
2023-03-03T03:32:33.020Z,45.90
2023-03-03T03:35:37.095Z,45.00
2023-03-03T03:38:41.211Z,42.50
2023-03-03T03:41:44.988Z,40.70
2023-03-03T03:44:48.306Z,43.10
2023-03-03T03:47:51.510Z,42.10
2023-03-03T03:50:54.860Z,41.70
2023-03-03T03:53:58.402Z,40.60
2023-03-03T03:57:02.083Z,40.40
2023-03-03T04:00:07.049Z,39.30
2023-03-03T04:03:17.092Z,38.10
2023-03-03T04:06:21.275Z,40.70
2023-03-03T04:09:25.168Z,43.30
2023-03-03T04:12:28.522Z,42.50
2023-03-03T04:15:32.023Z,46.10
2023-03-03T04:18:35.915Z,45.60
2023-03-03T04:21:39.619Z,45.00
2023-03-03T04:24:43.614Z,37.60
2023-03-03T04:27:46.909Z,35.20
2023-03-03T04:30:51.408Z,33.90
2023-03-03T04:33:55.038Z,32.70
2023-03-03T04:36:58.548Z,33.60
2023-03-03T04:40:02.191Z,35.60
2023-03-03T04:43:06.317Z,35.90
2023-03-03T04:46:09.653Z,36.60
2023-03-03T04:49:13.459Z,37.30
2023-03-03T04:52:17.244Z,37.70
2023-03-03T04:55:20.713Z,37.40
2023-03-03T04:58:24.389Z,37.50
2023-03-03T05:01:28.020Z,37.40
2023-03-03T05:04:32.435Z,36.00
2023-03-03T05:07:35.779Z,37.90
2023-03-03T05:10:39.775Z,38.00
2023-03-03T05:13:43.180Z,37.70
2023-03-03T05:16:46.449Z,36.50
2023-03-03T05:19:49.650Z,37.20
2023-03-03T05:22:53.085Z,35.80
2023-03-03T05:25:56.231Z,36.20
2023-03-03T05:28:59.418Z,35.60
2023-03-03T05:32:02.581Z,33.40
2023-03-03T05:35:06.487Z,33.80
2023-03-03T05:38:10.039Z,34.60
2023-03-03T05:41:13.444Z,32.20
2023-03-03T05:44:16.705Z,34.90
2023-03-03T05:47:19.964Z,38.90
2023-03-03T05:50:24.322Z,36.10
2023-03-03T05:53:28.484Z,33.50
2023-03-03T05:56:31.676Z,32.90
2023-03-03T05:59:34.860Z,31.00
2023-03-03T06:02:38.098Z,30.20
2023-03-03T06:05:41.373Z,29.20
2023-03-03T06:08:44.765Z,30.00
2023-03-03T06:11:48.032Z,31.00
2023-03-03T06:14:51.335Z,33.30
2023-03-03T06:17:54.778Z,30.40
2023-03-03T06:20:57.971Z,30.50
2023-03-03T06:24:01.177Z,28.80
2023-03-03T06:27:04.478Z,30.90
2023-03-03T06:30:08.301Z,29.50
2023-03-03T06:33:11.944Z,28.80
2023-03-03T06:36:15.461Z,28.00
2023-03-03T06:39:18.741Z,32.00
2023-03-03T06:42:24.030Z,35.30
2023-03-03T06:45:27.477Z,34.00
2023-03-03T06:48:32.134Z,31.90
2023-03-03T06:51:41.120Z,31.90
2023-03-03T06:54:44.906Z,28.70
2023-03-03T06:57:48.288Z,28.50
2023-03-03T07:00:59.510Z,28.10
2023-03-03T07:04:11.690Z,25.30
2023-03-03T07:07:24.872Z,26.20
2023-03-03T07:10:30.966Z,25.70
2023-03-03T07:13:34.533Z,24.50
2023-03-03T07:16:37.910Z,27.20
2023-03-03T07:19:41.519Z,30.20
2023-03-03T07:22:44.809Z,29.10
2023-03-03T07:25:48.670Z,28.70
2023-03-03T07:29:00.381Z,25.10
2023-03-03T07:32:11.234Z,26.60
2023-03-03T07:35:41.698Z,27.20
2023-03-03T07:38:53.557Z,26.10
2023-03-03T07:42:19.973Z,19.50
2023-03-03T07:45:25.537Z,25.70
2023-03-03T07:48:38.923Z,23.90
2023-03-03T07:51:42.377Z,22.40
2023-03-03T07:54:47.396Z,24.80
2023-03-03T07:57:54.775Z,24.80
2023-03-03T08:01:49.880Z,25.70
2023-03-03T08:04:54.900Z,23.80
2023-03-03T08:08:16.202Z,24.60
2023-03-03T08:13:09.281Z,25.40
2023-03-03T08:16:12.563Z,23.80
2023-03-03T08:19:18.237Z,20.60
2023-03-03T08:22:30.390Z,21.70
2023-03-03T08:25:33.787Z,20.20
2023-03-03T08:28:37.104Z,20.40
2023-03-03T08:31:42.097Z,19.10
2023-03-03T08:34:45.709Z,21.40
2023-03-03T08:38:03.650Z,22.70
2023-03-03T08:41:07.197Z,20.90
2023-03-03T08:44:11.331Z,22.10
2023-03-03T08:47:14.666Z,24.20
2023-03-03T08:50:18.656Z,22.00
2023-03-03T08:53:26.122Z,21.80
2023-03-03T08:56:29.721Z,21.30
2023-03-03T08:59:38.118Z,20.90
2023-03-03T09:02:41.942Z,20.60
2023-03-03T09:05:45.848Z,19.90
2023-03-03T09:08:50.421Z,20.40
2023-03-03T09:11:59.773Z,19.80
2023-03-03T09:15:19.078Z,23.40
2023-03-03T09:18:37.332Z,21.50
2023-03-03T09:21:42.376Z,18.10
2023-03-03T09:24:47.713Z,19.00
2023-03-03T09:27:53.813Z,19.30
2023-03-03T09:30:59.807Z,19.90
2023-03-03T09:34:12.711Z,20.20
2023-03-03T09:37:26.735Z,19.10
2023-03-03T09:40:57.620Z,16.90
2023-03-03T09:44:22.054Z,17.10
2023-03-03T09:47:49.930Z,19.00
2023-03-03T09:51:22.525Z,17.40
2023-03-03T09:58:10.851Z,15.90
2023-03-03T10:01:32.689Z,17.50
2023-03-03T10:05:04.211Z,16.10
2023-03-03T10:08:40.743Z,15.50
2023-03-03T10:11:46.762Z,16.50
2023-03-03T10:14:52.979Z,17.60
2023-03-03T10:18:12.315Z,20.10
2023-03-03T10:21:39.730Z,18.50
2023-03-03T10:28:35.133Z,20.70
2023-03-03T10:31:44.674Z,20.30
2023-03-03T10:34:50.982Z,20.10
2023-03-03T10:38:19.617Z,21.90
2023-03-03T10:41:47.937Z,18.90
2023-03-03T10:45:02.327Z,18.50
2023-03-03T10:48:14.940Z,17.70
2023-03-03T10:51:21.015Z,19.40
2023-03-03T10:54:56.173Z,18.70
2023-03-03T10:58:34.163Z,18.90
2023-03-03T11:01:59.877Z,15.50
2023-03-03T11:05:15.638Z,14.80
2023-03-03T11:08:57.633Z,15.60
2023-03-03T11:12:26.975Z,14.90
2023-03-03T11:15:36.471Z,14.60
2023-03-03T11:18:48.446Z,14.70
2023-03-03T11:22:16.240Z,14.90
2023-03-03T11:25:35.717Z,14.50
2023-03-03T11:28:53.689Z,14.60
2023-03-03T11:32:17.599Z,15.90
2023-03-03T11:35:28.033Z,16.20
2023-03-03T11:38:47.577Z,13.50
2023-03-03T11:42:02.311Z,13.50
2023-03-03T11:45:22.785Z,12.80
2023-03-03T11:49:09.776Z,14.00
2023-03-03T11:52:43.683Z,14.50
2023-03-03T11:56:01.645Z,14.20
2023-03-03T11:59:18.556Z,13.20
2023-03-03T12:02:27.981Z,11.80
2023-03-03T12:05:39.984Z,11.90
2023-03-03T12:08:58.399Z,12.10
2023-03-03T12:12:19.023Z,13.40
2023-03-03T12:15:31.254Z,14.40
2023-03-03T12:19:08.664Z,14.10
2023-03-03T12:22:21.895Z,15.00
2023-03-03T12:25:38.459Z,16.60
2023-03-03T12:29:06.700Z,15.00
2023-03-03T12:32:16.032Z,15.20
2023-03-03T12:35:26.288Z,14.00
2023-03-03T12:38:59.368Z,14.10
2023-03-03T12:42:24.874Z,13.40
2023-03-03T12:45:53.616Z,13.20
2023-03-03T12:48:56.935Z,12.30
2023-03-03T12:52:02.972Z,12.60
2023-03-03T12:55:21.445Z,14.20
2023-03-03T12:58:36.507Z,12.50
2023-03-03T13:02:04.052Z,13.00
2023-03-03T13:05:21.732Z,12.40
2023-03-03T13:08:37.104Z,12.60
2023-03-03T13:11:40.312Z,12.90
2023-03-03T13:14:43.502Z,13.30
2023-03-03T13:18:10.504Z,13.80
2023-03-03T13:21:27.113Z,14.00
2023-03-03T13:24:42.706Z,15.20
2023-03-03T13:27:51.477Z,15.10
2023-03-03T13:31:03.114Z,15.70
2023-03-03T13:34:18.350Z,13.90
2023-03-03T13:37:28.232Z,13.80
2023-03-03T13:40:43.580Z,13.30
2023-03-03T13:43:53.607Z,12.30
2023-03-03T13:47:08.571Z,12.60
2023-03-03T13:50:29.157Z,12.40
2023-03-03T13:53:41.673Z,14.20
2023-03-03T14:00:11.490Z,12.10
2023-03-03T14:03:23.983Z,15.60
2023-03-03T14:06:28.515Z,14.00
2023-03-03T14:09:40.209Z,12.30
2023-03-03T14:13:11.575Z,13.00
2023-03-03T14:16:33.470Z,12.50
2023-03-03T14:19:57.735Z,11.10
2023-03-03T14:23:14.745Z,12.90
2023-03-03T14:26:18.088Z,13.80
2023-03-03T14:29:27.686Z,13.80
2023-03-03T14:32:44.710Z,15.30
2023-03-03T14:35:51.357Z,12.60
2023-03-03T14:38:54.879Z,14.60
2023-03-03T14:41:59.469Z,15.00
2023-03-03T14:45:32.614Z,14.80
2023-03-03T14:48:51.442Z,14.60
2023-03-03T14:52:04.445Z,14.10
2023-03-03T14:55:33.319Z,12.30
2023-03-03T14:58:42.507Z,12.30
2023-03-03T15:01:47.303Z,10.40
2023-03-03T15:04:51.152Z,13.30
2023-03-03T15:08:09.014Z,13.80
2023-03-03T15:11:19.558Z,13.30
2023-03-03T15:14:31.604Z,13.60
2023-03-03T15:17:51.013Z,13.10
2023-03-03T15:21:32.340Z,14.00
2023-03-03T15:24:43.723Z,14.70
2023-03-03T15:28:19.723Z,14.60
2023-03-03T15:31:44.562Z,16.60
2023-03-03T15:35:00.242Z,14.80
2023-03-03T15:38:19.100Z,14.40
2023-03-03T15:41:26.887Z,12.80
2023-03-03T15:44:56.426Z,13.30
2023-03-03T15:48:05.321Z,13.70
2023-03-03T15:51:35.895Z,11.60
2023-03-03T15:54:44.367Z,12.70
2023-03-03T15:57:56.840Z,11.10
2023-03-03T16:04:28.370Z,13.10
2023-03-03T16:07:34.184Z,16.60
2023-03-03T16:10:46.503Z,15.50
2023-03-03T16:14:17.283Z,14.30
2023-03-03T16:17:20.417Z,15.30
2023-03-03T16:20:34.778Z,17.50
2023-03-03T16:23:50.799Z,17.00
2023-03-03T16:27:24.811Z,17.50
2023-03-03T16:30:38.147Z,20.30
2023-03-03T16:33:50.596Z,23.20
2023-03-03T16:40:26.909Z,23.80
2023-03-03T16:43:45.147Z,27.00
2023-03-03T16:46:49.990Z,24.40
2023-03-03T16:50:23.047Z,23.80
2023-03-03T16:53:44.256Z,23.10
2023-03-03T16:57:10.733Z,21.50
2023-03-03T17:00:40.759Z,15.80
2023-03-03T17:03:46.591Z,14.20
2023-03-03T17:06:58.025Z,16.70
2023-03-03T17:10:38.795Z,15.60
2023-03-03T17:14:12.875Z,14.10
2023-03-03T17:17:28.239Z,16.80
2023-03-03T17:20:50.519Z,17.20
2023-03-03T17:24:19.922Z,17.90
2023-03-03T17:27:46.433Z,17.90
2023-03-03T17:31:08.716Z,19.20
2023-03-03T17:34:41.522Z,26.20
2023-03-03T17:37:47.783Z,27.70
2023-03-03T17:41:14.890Z,29.00
2023-03-03T17:44:21.094Z,26.80
2023-03-03T17:47:47.131Z,29.30
2023-03-03T17:51:13.543Z,26.00
2023-03-03T17:54:49.140Z,23.70
2023-03-03T17:58:11.758Z,24.20
2023-03-03T18:01:36.293Z,21.00
2023-03-03T18:05:02.347Z,20.60
2023-03-03T18:08:24.195Z,19.80
2023-03-03T18:11:58.292Z,22.30
2023-03-03T18:15:01.479Z,22.70
2023-03-03T18:18:15.445Z,27.00
2023-03-03T18:21:26.983Z,26.60
2023-03-03T18:24:54.750Z,19.40
2023-03-03T18:28:00.402Z,27.60
2023-03-03T18:31:05.037Z,28.80
2023-03-03T18:34:10.047Z,28.30
2023-03-03T18:37:31.710Z,30.00
2023-03-03T18:40:35.608Z,31.10
2023-03-03T18:43:41.763Z,32.10
2023-03-03T18:46:47.631Z,32.30
2023-03-03T18:50:13.228Z,31.70
2023-03-03T18:53:29.019Z,29.20
2023-03-03T18:56:47.015Z,28.00
2023-03-03T18:59:56.378Z,25.80
2023-03-03T19:03:00.418Z,24.40
2023-03-03T19:06:10.293Z,25.10
2023-03-03T19:09:20.276Z,27.40
2023-03-03T19:12:48.602Z,29.30
2023-03-03T19:15:55.959Z,29.50
2023-03-03T19:19:02.357Z,30.90
2023-03-03T19:22:27.996Z,30.90
2023-03-03T19:25:34.494Z,31.50
2023-03-03T19:28:44.866Z,31.50
2023-03-03T19:32:26.529Z,26.80
2023-03-03T19:35:38.948Z,27.40
2023-03-03T19:41:57.503Z,23.50
2023-03-03T19:45:22.260Z,24.30
2023-03-03T19:48:28.273Z,25.30
2023-03-03T19:51:55.597Z,26.40
2023-03-03T19:55:17.220Z,27.20
2023-03-03T19:58:35.128Z,26.20
2023-03-03T20:02:16.691Z,24.30
2023-03-03T20:05:31.128Z,21.00
2023-03-03T20:08:44.011Z,20.50
2023-03-03T20:12:26.062Z,19.40
2023-03-03T20:15:47.583Z,22.80
2023-03-03T20:19:10.427Z,22.20
2023-03-03T20:22:19.440Z,22.70
2023-03-03T20:25:43.413Z,21.10
2023-03-03T20:29:02.025Z,21.30
2023-03-03T20:32:30.713Z,22.30
2023-03-03T20:36:04.917Z,20.40
2023-03-03T20:39:13.825Z,21.80
2023-03-03T20:42:38.132Z,22.20
2023-03-03T20:46:08.380Z,22.20
2023-03-03T20:49:21.787Z,22.20
2023-03-03T20:53:02.629Z,22.30
2023-03-03T20:56:16.918Z,22.00
2023-03-03T20:59:38.887Z,23.60
2023-03-03T21:03:19.051Z,24.70
2023-03-03T21:06:38.293Z,24.40
2023-03-03T21:09:41.757Z,24.50
2023-03-03T21:12:45.250Z,21.20
2023-03-03T21:15:59.929Z,17.40
2023-03-03T21:19:10.141Z,18.20
2023-03-03T21:22:13.514Z,18.70
2023-03-03T21:25:40.161Z,17.90
2023-03-03T21:29:03.225Z,19.20
2023-03-03T21:32:09.251Z,19.20
2023-03-03T21:35:19.014Z,20.40
2023-03-03T21:38:36.746Z,19.40
2023-03-03T21:41:56.562Z,20.10
2023-03-03T21:45:13.409Z,19.40
2023-03-03T21:48:16.689Z,19.20
2023-03-03T21:51:21.475Z,18.50
2023-03-03T21:54:25.394Z,18.50
2023-03-03T21:57:28.747Z,18.80
2023-03-03T22:00:32.043Z,21.50
2023-03-03T22:03:36.186Z,20.70
2023-03-03T22:06:39.937Z,20.40
2023-03-03T22:09:43.294Z,21.50
2023-03-03T22:12:47.257Z,21.00
2023-03-03T22:15:50.940Z,22.90
2023-03-03T22:18:54.262Z,22.40
2023-03-03T22:21:57.719Z,21.90
2023-03-03T22:25:01.137Z,19.70
2023-03-03T22:28:04.591Z,19.80
2023-03-03T22:31:08.008Z,19.00
2023-03-03T22:34:11.827Z,17.80
2023-03-03T22:37:15.193Z,17.40
2023-03-03T22:40:18.733Z,18.40
2023-03-03T22:43:22.106Z,17.80
2023-03-03T22:46:25.686Z,19.30
2023-03-03T22:49:29.411Z,17.60
2023-03-03T22:52:32.818Z,17.90
2023-03-03T22:55:37.248Z,18.90
2023-03-03T22:58:40.523Z,19.50
2023-03-03T23:01:43.804Z,19.40
2023-03-03T23:04:47.211Z,21.20
2023-03-03T23:07:50.807Z,21.80
2023-03-03T23:10:54.077Z,20.20
2023-03-03T23:13:57.320Z,21.90
2023-03-03T23:17:00.843Z,22.00
2023-03-03T23:20:04.397Z,22.30
2023-03-03T23:23:07.676Z,21.60
2023-03-03T23:26:10.903Z,21.20
2023-03-03T23:29:14.112Z,18.00
2023-03-03T23:32:17.307Z,16.90
2023-03-03T23:35:21.007Z,18.20
2023-03-03T23:38:24.251Z,17.30
2023-03-03T23:41:27.508Z,19.30
2023-03-03T23:44:30.770Z,19.20
2023-03-03T23:47:34.187Z,22.00
2023-03-03T23:50:38.152Z,21.50
2023-03-03T23:53:41.355Z,21.70
2023-03-03T23:56:44.496Z,21.50
2023-03-03T23:59:47.831Z,21.40
